Etusivu
METAR-TAF:

METAR-TAF

Lentoasemat :

Molden lentoasema

Molde, Norja

Leveyspiiri: 62-45N, Pituuspiiri: 007-16E, korkeus merenpinnasta: 0 m

Tämänhetkinen sää

Tämä raportti tehtiin 18 minuuttia sitten, kello 03.20 UTC
Tuuli 5 kn koillisesta, vaihdellen pohjoisen/koillisen ja idän välillä
Lämpötila -4°C
Kosteus 86%
Ilmanpaine 998 hPa
Näkyvyys 10 km tai enemmän

METAR: ENML 250320Z AUTO 05005KT 020V080 9999NDV NCD M04/M06 Q0998

Aika: 04:38 (03:38 UTC)

Sääennuste

Tämä raportti tehtiin 10 tuntia ja 38 minuuttia sitten, kello 17.00 UTC
Ennuste voimassa 24. päivästä klo 18 UTC - 24. päivään klo 22 UTC
Tuuli 5 kn lännestä/luoteesta
Näkyvyys 10 km tai enemmän
Muutamia pilviä 1500 ft:n korkeudessa, Cumulonimbus.
Hajanaisia pilviä 3000 ft:n korkeudessa
Ajoittain
24. päivästä klo 18 UTC - 24. päivään klo 22 UTC
Näkyvyys: 1000 m
800 ft:n korkeudessa
lumikuuroja, sadetta

TAF: ENML 241700Z 2418/2422 30005KT 9999 FEW015CB SCT030 TEMPO 2418/2422 1000 SHSNRA VV008

Säähavainnot ja -ennusteet yli 4000 lentoasemalta (METAR- ja TAF-raportit).

Käytössä olevat sääasemat on merkitty karttaan keltaisilla ja punaisilla pisteillä.

Aseta hiiri pisteen päälle nähdäksesi sääaseman nimen.

Klikkaa sitten nähdäksesi säähavainnot ja -ennusteet.

Kartan vaihtaminen: klikkaa mustalla rastilla varustettuja vihreitä pisteitä, niin voit zoomata sisään; viivalla varustettua vihreää pistettä, niin voit zoomata ulos tai vihreitä nuolia, niin pääset viereisille kartoille.


METAR-TAF: